sensor_id;sensor_type;location;lat;lon;timestamp;P1;durP1;ratioP1;P2;durP2;ratioP2
65831;SDS011;52593;42.648;23.332;2023-06-14T00:00:09;13.37;;;6.60;;
65831;SDS011;52593;42.648;23.332;2023-06-14T00:02:37;16.73;;;6.95;;
65831;SDS011;52593;42.648;23.332;2023-06-14T00:05:04;14.05;;;6.30;;
65831;SDS011;52593;42.648;23.332;2023-06-14T00:07:40;17.75;;;6.70;;
65831;SDS011;52593;42.648;23.332;2023-06-14T00:10:07;14.53;;;6.63;;
65831;SDS011;52593;42.648;23.332;2023-06-14T00:12:33;13.25;;;5.53;;
65831;SDS011;52593;42.648;23.332;2023-06-14T00:14:59;13.52;;;6.25;;
65831;SDS011;52593;42.648;23.332;2023-06-14T00:17:26;12.70;;;6.10;;
65831;SDS011;52593;42.648;23.332;2023-06-14T00:19:55;13.85;;;5.57;;
65831;SDS011;52593;42.648;23.332;2023-06-14T00:22:22;11.23;;;5.40;;
65831;SDS011;52593;42.648;23.332;2023-06-14T00:24:49;12.35;;;5.22;;
65831;SDS011;52593;42.648;23.332;2023-06-14T00:27:16;13.40;;;5.50;;
65831;SDS011;52593;42.648;23.332;2023-06-14T00:29:41;14.50;;;5.07;;
65831;SDS011;52593;42.648;23.332;2023-06-14T00:32:07;9.88;;;4.70;;
65831;SDS011;52593;42.648;23.332;2023-06-14T00:34:32;11.47;;;5.30;;
65831;SDS011;52593;42.648;23.332;2023-06-14T00:36:58;9.93;;;4.90;;
65831;SDS011;52593;42.648;23.332;2023-06-14T00:39:24;10.40;;;4.80;;
65831;SDS011;52593;42.648;23.332;2023-06-14T00:41:49;10.27;;;4.90;;
65831;SDS011;52593;42.648;23.332;2023-06-14T00:44:15;10.75;;;5.25;;
65831;SDS011;52593;42.648;23.332;2023-06-14T00:46:41;11.43;;;4.83;;
65831;SDS011;52593;42.648;23.332;2023-06-14T00:49:07;10.60;;;5.18;;
65831;SDS011;52593;42.648;23.332;2023-06-14T00:51:33;10.63;;;4.57;;
65831;SDS011;52593;42.648;23.332;2023-06-14T00:53:59;9.60;;;4.73;;
65831;SDS011;52593;42.648;23.332;2023-06-14T00:56:25;11.35;;;5.13;;
65831;SDS011;52593;42.648;23.332;2023-06-14T00:58:52;10.30;;;5.13;;
65831;SDS011;52593;42.648;23.332;2023-06-14T01:01:18;10.73;;;4.70;;
65831;SDS011;52593;42.648;23.332;2023-06-14T01:03:43;10.63;;;4.97;;
65831;SDS011;52593;42.648;23.332;2023-06-14T01:08:42;9.43;;;4.55;;
65831;SDS011;52593;42.648;23.332;2023-06-14T01:11:12;10.45;;;4.75;;
65831;SDS011;52593;42.648;23.332;2023-06-14T01:14:01;10.33;;;4.77;;
65831;SDS011;52593;42.648;23.332;2023-06-14T01:16:28;11.20;;;5.18;;
65831;SDS011;52593;42.648;23.332;2023-06-14T01:18:56;11.30;;;5.30;;
65831;SDS011;52593;42.648;23.332;2023-06-14T01:21:23;11.13;;;4.90;;
65831;SDS011;52593;42.648;23.332;2023-06-14T01:23:50;9.82;;;4.57;;
65831;SDS011;52593;42.648;23.332;2023-06-14T01:26:20;11.57;;;4.83;;
65831;SDS011;52593;42.648;23.332;2023-06-14T01:28:46;11.75;;;4.93;;
65831;SDS011;52593;42.648;23.332;2023-06-14T01:31:16;9.88;;;4.88;;
65831;SDS011;52593;42.648;23.332;2023-06-14T01:33:46;9.73;;;4.88;;
65831;SDS011;52593;42.648;23.332;2023-06-14T01:36:14;9.90;;;4.93;;
65831;SDS011;52593;42.648;23.332;2023-06-14T01:38:41;9.03;;;4.60;;
65831;SDS011;52593;42.648;23.332;2023-06-14T01:41:09;8.85;;;4.40;;
65831;SDS011;52593;42.648;23.332;2023-06-14T01:43:35;9.63;;;4.40;;
65831;SDS011;52593;42.648;23.332;2023-06-14T01:46:01;10.77;;;4.80;;
65831;SDS011;52593;42.648;23.332;2023-06-14T01:48:28;9.20;;;4.50;;
65831;SDS011;52593;42.648;23.332;2023-06-14T01:50:53;10.98;;;4.32;;
65831;SDS011;52593;42.648;23.332;2023-06-14T01:53:19;8.13;;;3.77;;
65831;SDS011;52593;42.648;23.332;2023-06-14T01:55:44;9.43;;;4.13;;
65831;SDS011;52593;42.648;23.332;2023-06-14T01:58:13;11.60;;;4.05;;
65831;SDS011;52593;42.648;23.332;2023-06-14T02:00:39;8.98;;;3.60;;
65831;SDS011;52593;42.648;23.332;2023-06-14T02:03:05;8.80;;;4.13;;
65831;SDS011;52593;42.648;23.332;2023-06-14T02:05:30;7.90;;;3.60;;
65831;SDS011;52593;42.648;23.332;2023-06-14T02:07:56;7.63;;;3.87;;
65831;SDS011;52593;42.648;23.332;2023-06-14T02:10:21;8.43;;;4.10;;
65831;SDS011;52593;42.648;23.332;2023-06-14T02:12:47;8.60;;;4.25;;
65831;SDS011;52593;42.648;23.332;2023-06-14T02:15:13;11.03;;;4.90;;
65831;SDS011;52593;42.648;23.332;2023-06-14T02:17:47;9.43;;;4.63;;
65831;SDS011;52593;42.648;23.332;2023-06-14T02:20:12;8.75;;;4.28;;
65831;SDS011;52593;42.648;23.332;2023-06-14T02:22:38;8.90;;;3.87;;
65831;SDS011;52593;42.648;23.332;2023-06-14T02:25:04;9.00;;;3.85;;
65831;SDS011;52593;42.648;23.332;2023-06-14T02:27:30;8.30;;;3.90;;
65831;SDS011;52593;42.648;23.332;2023-06-14T02:29:55;9.77;;;4.23;;
65831;SDS011;52593;42.648;23.332;2023-06-14T02:32:21;10.03;;;4.27;;
65831;SDS011;52593;42.648;23.332;2023-06-14T02:34:46;8.17;;;3.80;;
65831;SDS011;52593;42.648;23.332;2023-06-14T02:37:14;9.43;;;3.58;;
65831;SDS011;52593;42.648;23.332;2023-06-14T02:39:40;7.70;;;3.67;;
65831;SDS011;52593;42.648;23.332;2023-06-14T02:42:06;9.87;;;3.83;;
65831;SDS011;52593;42.648;23.332;2023-06-14T02:44:31;7.57;;;3.45;;
65831;SDS011;52593;42.648;23.332;2023-06-14T02:46:57;9.07;;;3.73;;
65831;SDS011;52593;42.648;23.332;2023-06-14T02:49:23;8.32;;;3.88;;
65831;SDS011;52593;42.648;23.332;2023-06-14T02:51:49;9.17;;;4.30;;
65831;SDS011;52593;42.648;23.332;2023-06-14T02:54:15;8.25;;;4.18;;
65831;SDS011;52593;42.648;23.332;2023-06-14T02:56:40;7.70;;;3.70;;
65831;SDS011;52593;42.648;23.332;2023-06-14T02:59:06;9.37;;;4.00;;
65831;SDS011;52593;42.648;23.332;2023-06-14T03:01:32;8.65;;;3.97;;
65831;SDS011;52593;42.648;23.332;2023-06-14T03:04:01;8.82;;;3.92;;
65831;SDS011;52593;42.648;23.332;2023-06-14T03:06:28;8.93;;;3.88;;
65831;SDS011;52593;42.648;23.332;2023-06-14T03:08:55;9.45;;;4.20;;
65831;SDS011;52593;42.648;23.332;2023-06-14T03:11:26;8.73;;;4.07;;
65831;SDS011;52593;42.648;23.332;2023-06-14T03:13:52;9.15;;;3.95;;
65831;SDS011;52593;42.648;23.332;2023-06-14T03:16:18;8.27;;;4.25;;
65831;SDS011;52593;42.648;23.332;2023-06-14T03:18:44;9.23;;;4.30;;
65831;SDS011;52593;42.648;23.332;2023-06-14T03:21:10;11.33;;;4.73;;
65831;SDS011;52593;42.648;23.332;2023-06-14T03:23:36;12.15;;;4.72;;
65831;SDS011;52593;42.648;23.332;2023-06-14T03:26:01;9.33;;;4.60;;
65831;SDS011;52593;42.648;23.332;2023-06-14T03:28:26;10.13;;;4.30;;
65831;SDS011;52593;42.648;23.332;2023-06-14T03:30:52;10.82;;;4.43;;
65831;SDS011;52593;42.648;23.332;2023-06-14T03:33:17;9.77;;;4.23;;
65831;SDS011;52593;42.648;23.332;2023-06-14T03:35:43;11.07;;;4.40;;
65831;SDS011;52593;42.648;23.332;2023-06-14T03:38:09;8.60;;;4.32;;
65831;SDS011;52593;42.648;23.332;2023-06-14T03:40:34;9.33;;;4.53;;
65831;SDS011;52593;42.648;23.332;2023-06-14T03:42:59;9.60;;;4.23;;
65831;SDS011;52593;42.648;23.332;2023-06-14T03:45:25;9.10;;;4.13;;
65831;SDS011;52593;42.648;23.332;2023-06-14T03:47:50;10.27;;;4.77;;
65831;SDS011;52593;42.648;23.332;2023-06-14T03:50:17;9.18;;;4.55;;
65831;SDS011;52593;42.648;23.332;2023-06-14T03:52:43;11.60;;;5.30;;
65831;SDS011;52593;42.648;23.332;2023-06-14T03:55:09;10.18;;;4.65;;
65831;SDS011;52593;42.648;23.332;2023-06-14T03:57:35;10.38;;;4.82;;
65831;SDS011;52593;42.648;23.332;2023-06-14T04:00:01;9.07;;;4.40;;
65831;SDS011;52593;42.648;23.332;2023-06-14T04:02:26;11.10;;;4.83;;
65831;SDS011;52593;42.648;23.332;2023-06-14T04:04:54;11.65;;;5.28;;
65831;SDS011;52593;42.648;23.332;2023-06-14T04:07:20;11.05;;;4.85;;
65831;SDS011;52593;42.648;23.332;2023-06-14T04:09:46;11.23;;;4.93;;
65831;SDS011;52593;42.648;23.332;2023-06-14T04:12:12;9.98;;;4.72;;
65831;SDS011;52593;42.648;23.332;2023-06-14T04:14:38;11.57;;;5.23;;
65831;SDS011;52593;42.648;23.332;2023-06-14T04:17:04;9.43;;;4.60;;
65831;SDS011;52593;42.648;23.332;2023-06-14T04:19:30;11.40;;;4.73;;
65831;SDS011;52593;42.648;23.332;2023-06-14T04:21:55;10.17;;;4.87;;
65831;SDS011;52593;42.648;23.332;2023-06-14T04:24:21;10.63;;;4.80;;
65831;SDS011;52593;42.648;23.332;2023-06-14T04:26:48;11.18;;;5.50;;
65831;SDS011;52593;42.648;23.332;2023-06-14T04:29:14;10.18;;;4.72;;
65831;SDS011;52593;42.648;23.332;2023-06-14T04:31:41;10.27;;;4.68;;
65831;SDS011;52593;42.648;23.332;2023-06-14T04:34:07;9.45;;;4.85;;
65831;SDS011;52593;42.648;23.332;2023-06-14T04:36:33;11.47;;;5.17;;
65831;SDS011;52593;42.648;23.332;2023-06-14T04:39:02;9.70;;;4.78;;
65831;SDS011;52593;42.648;23.332;2023-06-14T04:41:29;11.18;;;4.88;;
65831;SDS011;52593;42.648;23.332;2023-06-14T04:43:57;12.00;;;4.73;;
65831;SDS011;52593;42.648;23.332;2023-06-14T04:46:23;9.35;;;4.68;;
65831;SDS011;52593;42.648;23.332;2023-06-14T04:48:49;10.05;;;4.70;;
65831;SDS011;52593;42.648;23.332;2023-06-14T04:51:15;10.30;;;4.80;;
65831;SDS011;52593;42.648;23.332;2023-06-14T04:53:41;10.98;;;5.00;;
65831;SDS011;52593;42.648;23.332;2023-06-14T04:56:07;9.57;;;4.90;;
65831;SDS011;52593;42.648;23.332;2023-06-14T04:58:32;10.67;;;4.67;;
65831;SDS011;52593;42.648;23.332;2023-06-14T05:00:57;9.87;;;5.00;;
65831;SDS011;52593;42.648;23.332;2023-06-14T05:03:24;10.68;;;5.22;;
65831;SDS011;52593;42.648;23.332;2023-06-14T05:05:50;11.27;;;5.43;;
65831;SDS011;52593;42.648;23.332;2023-06-14T05:08:18;13.23;;;6.23;;
65831;SDS011;52593;42.648;23.332;2023-06-14T05:10:43;11.55;;;5.32;;
65831;SDS011;52593;42.648;23.332;2023-06-14T05:13:09;12.33;;;5.90;;
65831;SDS011;52593;42.648;23.332;2023-06-14T05:15:35;11.32;;;5.80;;
65831;SDS011;52593;42.648;23.332;2023-06-14T05:18:01;13.53;;;6.70;;
65831;SDS011;52593;42.648;23.332;2023-06-14T05:20:26;11.57;;;6.10;;
65831;SDS011;52593;42.648;23.332;2023-06-14T05:22:54;12.33;;;6.23;;
65831;SDS011;52593;42.648;23.332;2023-06-14T05:25:22;14.00;;;5.97;;
65831;SDS011;52593;42.648;23.332;2023-06-14T05:27:48;16.50;;;6.82;;
65831;SDS011;52593;42.648;23.332;2023-06-14T05:30:14;15.43;;;7.18;;
65831;SDS011;52593;42.648;23.332;2023-06-14T05:32:40;36.85;;;8.45;;
65831;SDS011;52593;42.648;23.332;2023-06-14T05:35:06;15.00;;;7.78;;
65831;SDS011;52593;42.648;23.332;2023-06-14T05:37:32;14.80;;;6.67;;
65831;SDS011;52593;42.648;23.332;2023-06-14T05:39:57;21.77;;;8.50;;
65831;SDS011;52593;42.648;23.332;2023-06-14T05:42:23;15.40;;;7.70;;
65831;SDS011;52593;42.648;23.332;2023-06-14T05:44:48;17.00;;;7.27;;
65831;SDS011;52593;42.648;23.332;2023-06-14T05:47:14;15.53;;;7.27;;
65831;SDS011;52593;42.648;23.332;2023-06-14T05:49:39;16.13;;;7.37;;
65831;SDS011;52593;42.648;23.332;2023-06-14T05:52:05;17.75;;;7.85;;
65831;SDS011;52593;42.648;23.332;2023-06-14T05:54:31;15.52;;;8.18;;
65831;SDS011;52593;42.648;23.332;2023-06-14T05:56:56;14.13;;;6.87;;
65831;SDS011;52593;42.648;23.332;2023-06-14T05:59:26;17.48;;;7.82;;
65831;SDS011;52593;42.648;23.332;2023-06-14T06:01:52;16.83;;;8.23;;
65831;SDS011;52593;42.648;23.332;2023-06-14T06:04:17;16.25;;;8.20;;
65831;SDS011;52593;42.648;23.332;2023-06-14T06:06:43;18.67;;;8.70;;
65831;SDS011;52593;42.648;23.332;2023-06-14T06:09:08;18.03;;;8.20;;
65831;SDS011;52593;42.648;23.332;2023-06-14T06:11:33;17.07;;;8.20;;
65831;SDS011;52593;42.648;23.332;2023-06-14T06:13:59;17.07;;;8.80;;
65831;SDS011;52593;42.648;23.332;2023-06-14T06:16:24;17.88;;;8.13;;
65831;SDS011;52593;42.648;23.332;2023-06-14T06:18:49;16.43;;;7.87;;
65831;SDS011;52593;42.648;23.332;2023-06-14T06:21:15;18.27;;;8.17;;
65831;SDS011;52593;42.648;23.332;2023-06-14T06:23:40;19.73;;;8.75;;
65831;SDS011;52593;42.648;23.332;2023-06-14T06:26:06;15.07;;;7.77;;
65831;SDS011;52593;42.648;23.332;2023-06-14T06:28:32;16.85;;;8.60;;
65831;SDS011;52593;42.648;23.332;2023-06-14T06:49:33;17.25;;;8.45;;
65831;SDS011;52593;42.648;23.332;2023-06-14T06:52:03;18.25;;;7.80;;
65831;SDS011;52593;42.648;23.332;2023-06-14T06:54:30;17.98;;;8.45;;
65831;SDS011;52593;42.648;23.332;2023-06-14T06:56:55;15.17;;;8.03;;
65831;SDS011;52593;42.648;23.332;2023-06-14T06:59:21;17.50;;;8.50;;
65831;SDS011;52593;42.648;23.332;2023-06-14T07:01:46;16.47;;;8.60;;
65831;SDS011;52593;42.648;23.332;2023-06-14T07:04:12;21.50;;;9.97;;
65831;SDS011;52593;42.648;23.332;2023-06-14T07:06:38;19.00;;;8.82;;
65831;SDS011;52593;42.648;23.332;2023-06-14T07:09:03;19.10;;;10.00;;
65831;SDS011;52593;42.648;23.332;2023-06-14T07:11:33;19.42;;;8.88;;
65831;SDS011;52593;42.648;23.332;2023-06-14T07:13:59;18.10;;;8.02;;
65831;SDS011;52593;42.648;23.332;2023-06-14T07:16:24;16.77;;;8.07;;
65831;SDS011;52593;42.648;23.332;2023-06-14T07:18:50;16.30;;;8.30;;
65831;SDS011;52593;42.648;23.332;2023-06-14T07:21:16;18.33;;;9.00;;
65831;SDS011;52593;42.648;23.332;2023-06-14T07:23:41;16.83;;;8.03;;
65831;SDS011;52593;42.648;23.332;2023-06-14T07:26:07;18.03;;;8.40;;
65831;SDS011;52593;42.648;23.332;2023-06-14T07:28:32;17.30;;;8.43;;
65831;SDS011;52593;42.648;23.332;2023-06-14T07:30:57;19.67;;;8.17;;
65831;SDS011;52593;42.648;23.332;2023-06-14T07:33:23;18.50;;;7.88;;
65831;SDS011;52593;42.648;23.332;2023-06-14T07:35:48;17.57;;;8.90;;
65831;SDS011;52593;42.648;23.332;2023-06-14T07:38:14;18.23;;;9.13;;
65831;SDS011;52593;42.648;23.332;2023-06-14T07:40:39;20.00;;;10.15;;
65831;SDS011;52593;42.648;23.332;2023-06-14T07:43:07;18.43;;;9.13;;
65831;SDS011;52593;42.648;23.332;2023-06-14T07:45:33;15.35;;;8.57;;
65831;SDS011;52593;42.648;23.332;2023-06-14T07:47:58;19.63;;;9.63;;
65831;SDS011;52593;42.648;23.332;2023-06-14T07:50:23;25.10;;;13.37;;
65831;SDS011;52593;42.648;23.332;2023-06-14T07:52:49;18.17;;;8.33;;
65831;SDS011;52593;42.648;23.332;2023-06-14T07:55:14;17.92;;;8.98;;
65831;SDS011;52593;42.648;23.332;2023-06-14T07:57:40;18.87;;;9.70;;
65831;SDS011;52593;42.648;23.332;2023-06-14T08:00:06;19.37;;;9.67;;
65831;SDS011;52593;42.648;23.332;2023-06-14T08:02:31;18.70;;;9.10;;
65831;SDS011;52593;42.648;23.332;2023-06-14T08:04:57;18.08;;;9.52;;
65831;SDS011;52593;42.648;23.332;2023-06-14T08:07:23;20.67;;;9.83;;
65831;SDS011;52593;42.648;23.332;2023-06-14T08:09:49;17.40;;;9.15;;
65831;SDS011;52593;42.648;23.332;2023-06-14T08:12:14;20.97;;;8.23;;
65831;SDS011;52593;42.648;23.332;2023-06-14T08:14:41;18.43;;;8.43;;
65831;SDS011;52593;42.648;23.332;2023-06-14T08:17:07;19.53;;;9.27;;
65831;SDS011;52593;42.648;23.332;2023-06-14T08:19:33;19.45;;;9.30;;
65831;SDS011;52593;42.648;23.332;2023-06-14T08:21:58;22.53;;;11.57;;
65831;SDS011;52593;42.648;23.332;2023-06-14T08:24:25;18.15;;;9.10;;
65831;SDS011;52593;42.648;23.332;2023-06-14T08:26:52;17.70;;;8.77;;
65831;SDS011;52593;42.648;23.332;2023-06-14T08:29:18;19.52;;;8.60;;
65831;SDS011;52593;42.648;23.332;2023-06-14T08:31:44;18.33;;;9.00;;
65831;SDS011;52593;42.648;23.332;2023-06-14T08:34:09;17.02;;;8.65;;
65831;SDS011;52593;42.648;23.332;2023-06-14T08:36:35;17.17;;;8.77;;
65831;SDS011;52593;42.648;23.332;2023-06-14T08:39:01;16.33;;;8.70;;
65831;SDS011;52593;42.648;23.332;2023-06-14T08:41:26;18.35;;;8.38;;
65831;SDS011;52593;42.648;23.332;2023-06-14T08:43:54;17.05;;;8.57;;
65831;SDS011;52593;42.648;23.332;2023-06-14T08:46:20;20.02;;;8.30;;
65831;SDS011;52593;42.648;23.332;2023-06-14T08:48:50;21.08;;;8.70;;
65831;SDS011;52593;42.648;23.332;2023-06-14T08:51:18;18.07;;;9.27;;
65831;SDS011;52593;42.648;23.332;2023-06-14T08:53:44;19.67;;;9.50;;
65831;SDS011;52593;42.648;23.332;2023-06-14T08:56:10;17.83;;;8.68;;
65831;SDS011;52593;42.648;23.332;2023-06-14T08:58:40;17.70;;;8.75;;
65831;SDS011;52593;42.648;23.332;2023-06-14T09:01:10;16.70;;;8.98;;
65831;SDS011;52593;42.648;23.332;2023-06-14T09:03:39;18.73;;;9.20;;
65831;SDS011;52593;42.648;23.332;2023-06-14T09:06:08;17.08;;;8.43;;
65831;SDS011;52593;42.648;23.332;2023-06-14T09:08:39;15.60;;;8.52;;
65831;SDS011;52593;42.648;23.332;2023-06-14T09:11:10;13.93;;;8.25;;
65831;SDS011;52593;42.648;23.332;2023-06-14T09:13:37;15.55;;;8.73;;
65831;SDS011;52593;42.648;23.332;2023-06-14T09:16:03;17.00;;;8.60;;
65831;SDS011;52593;42.648;23.332;2023-06-14T09:18:48;16.13;;;7.80;;
65831;SDS011;52593;42.648;23.332;2023-06-14T09:21:14;14.57;;;8.27;;
65831;SDS011;52593;42.648;23.332;2023-06-14T09:23:42;15.60;;;9.13;;
65831;SDS011;52593;42.648;23.332;2023-06-14T09:26:12;14.32;;;8.52;;
65831;SDS011;52593;42.648;23.332;2023-06-14T09:28:41;18.43;;;9.03;;
65831;SDS011;52593;42.648;23.332;2023-06-14T09:31:13;16.08;;;9.30;;
65831;SDS011;52593;42.648;23.332;2023-06-14T09:33:43;19.27;;;9.13;;
65831;SDS011;52593;42.648;23.332;2023-06-14T09:36:23;16.95;;;8.68;;
65831;SDS011;52593;42.648;23.332;2023-06-14T09:38:54;15.23;;;8.80;;
65831;SDS011;52593;42.648;23.332;2023-06-14T09:41:42;17.87;;;9.00;;
65831;SDS011;52593;42.648;23.332;2023-06-14T09:44:08;15.80;;;8.63;;
65831;SDS011;52593;42.648;23.332;2023-06-14T09:46:35;16.38;;;8.73;;
65831;SDS011;52593;42.648;23.332;2023-06-14T09:49:02;16.35;;;8.13;;
65831;SDS011;52593;42.648;23.332;2023-06-14T09:51:29;15.23;;;8.50;;
65831;SDS011;52593;42.648;23.332;2023-06-14T09:54:03;16.40;;;8.17;;
65831;SDS011;52593;42.648;23.332;2023-06-14T09:58:57;16.60;;;8.75;;
65831;SDS011;52593;42.648;23.332;2023-06-14T10:01:24;15.27;;;8.02;;
65831;SDS011;52593;42.648;23.332;2023-06-14T10:03:57;17.38;;;8.73;;
65831;SDS011;52593;42.648;23.332;2023-06-14T10:06:27;16.10;;;7.93;;
65831;SDS011;52593;42.648;23.332;2023-06-14T10:08:56;20.75;;;10.75;;
65831;SDS011;52593;42.648;23.332;2023-06-14T10:11:24;18.10;;;8.80;;
65831;SDS011;52593;42.648;23.332;2023-06-14T10:13:51;16.08;;;9.30;;
65831;SDS011;52593;42.648;23.332;2023-06-14T10:16:19;17.55;;;9.20;;
65831;SDS011;52593;42.648;23.332;2023-06-14T10:18:53;14.83;;;8.20;;
65831;SDS011;52593;42.648;23.332;2023-06-14T10:24:31;16.90;;;8.05;;
65831;SDS011;52593;42.648;23.332;2023-06-14T10:26:58;14.05;;;8.30;;
65831;SDS011;52593;42.648;23.332;2023-06-14T10:29:27;17.88;;;8.93;;
65831;SDS011;52593;42.648;23.332;2023-06-14T10:31:57;14.17;;;8.00;;
65831;SDS011;52593;42.648;23.332;2023-06-14T10:34:25;19.17;;;7.82;;
65831;SDS011;52593;42.648;23.332;2023-06-14T10:37:05;15.20;;;8.18;;
65831;SDS011;52593;42.648;23.332;2023-06-14T10:39:32;15.52;;;7.97;;
65831;SDS011;52593;42.648;23.332;2023-06-14T10:42:03;16.55;;;8.68;;
65831;SDS011;52593;42.648;23.332;2023-06-14T10:46:56;15.15;;;8.57;;
65831;SDS011;52593;42.648;23.332;2023-06-14T10:49:44;13.17;;;7.33;;
65831;SDS011;52593;42.648;23.332;2023-06-14T10:52:16;13.40;;;7.22;;
65831;SDS011;52593;42.648;23.332;2023-06-14T10:57:39;13.80;;;7.22;;
65831;SDS011;52593;42.648;23.332;2023-06-14T11:00:05;17.13;;;8.15;;
65831;SDS011;52593;42.648;23.332;2023-06-14T11:05:08;13.00;;;7.45;;
65831;SDS011;52593;42.648;23.332;2023-06-14T11:10:43;13.43;;;7.45;;
65831;SDS011;52593;42.648;23.332;2023-06-14T11:13:10;12.73;;;7.53;;
65831;SDS011;52593;42.648;23.332;2023-06-14T11:15:37;13.40;;;7.83;;
65831;SDS011;52593;42.648;23.332;2023-06-14T11:18:04;12.75;;;7.30;;
65831;SDS011;52593;42.648;23.332;2023-06-14T11:20:32;14.07;;;7.60;;
65831;SDS011;52593;42.648;23.332;2023-06-14T11:23:00;10.93;;;6.75;;
65831;SDS011;52593;42.648;23.332;2023-06-14T11:25:26;15.87;;;8.03;;
65831;SDS011;52593;42.648;23.332;2023-06-14T11:27:55;14.57;;;7.40;;
65831;SDS011;52593;42.648;23.332;2023-06-14T11:30:21;12.27;;;6.57;;
65831;SDS011;52593;42.648;23.332;2023-06-14T11:32:47;11.77;;;6.82;;
65831;SDS011;52593;42.648;23.332;2023-06-14T11:35:17;12.23;;;6.63;;
65831;SDS011;52593;42.648;23.332;2023-06-14T11:37:44;11.23;;;6.55;;
65831;SDS011;52593;42.648;23.332;2023-06-14T11:40:10;13.68;;;6.80;;
65831;SDS011;52593;42.648;23.332;2023-06-14T11:42:38;9.63;;;5.80;;
65831;SDS011;52593;42.648;23.332;2023-06-14T11:45:08;11.05;;;6.20;;
65831;SDS011;52593;42.648;23.332;2023-06-14T11:47:35;10.97;;;6.23;;
65831;SDS011;52593;42.648;23.332;2023-06-14T11:50:02;10.52;;;6.40;;
65831;SDS011;52593;42.648;23.332;2023-06-14T11:52:29;11.55;;;6.05;;
65831;SDS011;52593;42.648;23.332;2023-06-14T11:54:54;10.57;;;5.70;;
65831;SDS011;52593;42.648;23.332;2023-06-14T11:57:21;10.00;;;6.35;;
65831;SDS011;52593;42.648;23.332;2023-06-14T11:59:46;10.70;;;5.80;;
65831;SDS011;52593;42.648;23.332;2023-06-14T12:02:15;9.60;;;6.25;;
65831;SDS011;52593;42.648;23.332;2023-06-14T12:04:46;10.23;;;6.28;;
65831;SDS011;52593;42.648;23.332;2023-06-14T12:07:12;9.50;;;6.47;;
65831;SDS011;52593;42.648;23.332;2023-06-14T12:12:18;9.13;;;5.05;;
65831;SDS011;52593;42.648;23.332;2023-06-14T12:14:46;9.77;;;6.13;;
65831;SDS011;52593;42.648;23.332;2023-06-14T12:17:12;9.95;;;5.65;;
65831;SDS011;52593;42.648;23.332;2023-06-14T12:19:43;8.67;;;5.77;;
65831;SDS011;52593;42.648;23.332;2023-06-14T12:22:10;9.23;;;5.68;;
65831;SDS011;52593;42.648;23.332;2023-06-14T12:24:42;10.60;;;5.80;;
65831;SDS011;52593;42.648;23.332;2023-06-14T12:27:08;9.07;;;5.22;;
65831;SDS011;52593;42.648;23.332;2023-06-14T12:29:33;10.23;;;5.90;;
65831;SDS011;52593;42.648;23.332;2023-06-14T12:31:58;11.98;;;5.45;;
65831;SDS011;52593;42.648;23.332;2023-06-14T12:34:24;10.30;;;5.60;;
65831;SDS011;52593;42.648;23.332;2023-06-14T12:36:51;10.07;;;5.60;;
65831;SDS011;52593;42.648;23.332;2023-06-14T12:39:19;9.93;;;5.80;;
65831;SDS011;52593;42.648;23.332;2023-06-14T12:41:45;9.68;;;5.32;;
65831;SDS011;52593;42.648;23.332;2023-06-14T12:44:12;10.67;;;6.10;;
65831;SDS011;52593;42.648;23.332;2023-06-14T12:46:37;12.13;;;6.00;;
65831;SDS011;52593;42.648;23.332;2023-06-14T12:49:04;9.93;;;5.78;;
65831;SDS011;52593;42.648;23.332;2023-06-14T12:51:31;12.82;;;5.90;;
65831;SDS011;52593;42.648;23.332;2023-06-14T12:53:57;11.33;;;5.80;;
65831;SDS011;52593;42.648;23.332;2023-06-14T12:56:22;10.20;;;5.43;;
65831;SDS011;52593;42.648;23.332;2023-06-14T12:58:48;12.05;;;6.63;;
65831;SDS011;52593;42.648;23.332;2023-06-14T13:01:13;11.03;;;6.43;;
65831;SDS011;52593;42.648;23.332;2023-06-14T13:03:38;12.00;;;6.60;;
65831;SDS011;52593;42.648;23.332;2023-06-14T13:06:04;12.60;;;7.03;;
65831;SDS011;52593;42.648;23.332;2023-06-14T13:08:30;17.83;;;7.22;;
65831;SDS011;52593;42.648;23.332;2023-06-14T13:10:56;13.02;;;6.30;;
65831;SDS011;52593;42.648;23.332;2023-06-14T13:13:22;12.73;;;5.77;;
65831;SDS011;52593;42.648;23.332;2023-06-14T13:15:48;10.27;;;6.00;;
65831;SDS011;52593;42.648;23.332;2023-06-14T13:18:14;10.98;;;5.88;;
65831;SDS011;52593;42.648;23.332;2023-06-14T13:20:40;10.27;;;6.00;;
65831;SDS011;52593;42.648;23.332;2023-06-14T13:23:06;9.77;;;5.60;;
65831;SDS011;52593;42.648;23.332;2023-06-14T13:25:36;9.48;;;4.90;;
65831;SDS011;52593;42.648;23.332;2023-06-14T13:28:03;8.82;;;4.35;;
65831;SDS011;52593;42.648;23.332;2023-06-14T13:30:29;10.27;;;4.30;;
65831;SDS011;52593;42.648;23.332;2023-06-14T13:32:55;9.45;;;4.38;;
65831;SDS011;52593;42.648;23.332;2023-06-14T13:35:21;10.40;;;5.07;;
65831;SDS011;52593;42.648;23.332;2023-06-14T13:37:47;12.38;;;5.25;;
65831;SDS011;52593;42.648;23.332;2023-06-14T13:40:12;10.90;;;5.20;;
65831;SDS011;52593;42.648;23.332;2023-06-14T13:42:38;8.73;;;4.97;;
65831;SDS011;52593;42.648;23.332;2023-06-14T13:45:03;11.45;;;5.32;;
65831;SDS011;52593;42.648;23.332;2023-06-14T13:47:30;10.83;;;5.67;;
65831;SDS011;52593;42.648;23.332;2023-06-14T13:49:56;11.27;;;5.90;;
65831;SDS011;52593;42.648;23.332;2023-06-14T13:52:22;13.70;;;5.60;;
65831;SDS011;52593;42.648;23.332;2023-06-14T13:54:48;10.17;;;5.90;;
65831;SDS011;52593;42.648;23.332;2023-06-14T13:57:13;14.50;;;6.30;;
65831;SDS011;52593;42.648;23.332;2023-06-14T13:59:39;10.63;;;6.00;;
65831;SDS011;52593;42.648;23.332;2023-06-14T14:02:05;11.73;;;5.80;;
65831;SDS011;52593;42.648;23.332;2023-06-14T14:04:31;9.70;;;5.22;;
65831;SDS011;52593;42.648;23.332;2023-06-14T14:06:58;9.45;;;5.30;;
65831;SDS011;52593;42.648;23.332;2023-06-14T14:09:23;12.30;;;5.47;;
65831;SDS011;52593;42.648;23.332;2023-06-14T14:11:48;9.23;;;5.17;;
65831;SDS011;52593;42.648;23.332;2023-06-14T14:14:14;9.82;;;5.53;;
65831;SDS011;52593;42.648;23.332;2023-06-14T14:16:40;11.23;;;5.43;;
65831;SDS011;52593;42.648;23.332;2023-06-14T14:19:06;10.57;;;5.40;;
65831;SDS011;52593;42.648;23.332;2023-06-14T14:21:32;11.07;;;5.97;;
65831;SDS011;52593;42.648;23.332;2023-06-14T14:23:58;10.80;;;5.47;;
65831;SDS011;52593;42.648;23.332;2023-06-14T14:26:23;10.15;;;5.57;;
65831;SDS011;52593;42.648;23.332;2023-06-14T14:28:50;11.82;;;5.03;;
65831;SDS011;52593;42.648;23.332;2023-06-14T14:31:15;7.43;;;4.23;;
65831;SDS011;52593;42.648;23.332;2023-06-14T14:33:41;9.50;;;4.33;;
65831;SDS011;52593;42.648;23.332;2023-06-14T14:36:06;9.23;;;4.43;;
65831;SDS011;52593;42.648;23.332;2023-06-14T14:38:32;8.55;;;4.57;;
65831;SDS011;52593;42.648;23.332;2023-06-14T14:40:58;8.83;;;4.77;;
65831;SDS011;52593;42.648;23.332;2023-06-14T14:43:23;9.40;;;5.00;;
65831;SDS011;52593;42.648;23.332;2023-06-14T14:45:49;14.47;;;6.37;;
65831;SDS011;52593;42.648;23.332;2023-06-14T14:48:14;15.90;;;7.00;;
65831;SDS011;52593;42.648;23.332;2023-06-14T14:50:40;11.00;;;5.40;;
65831;SDS011;52593;42.648;23.332;2023-06-14T14:53:05;11.65;;;5.95;;
65831;SDS011;52593;42.648;23.332;2023-06-14T14:55:31;13.30;;;7.00;;
65831;SDS011;52593;42.648;23.332;2023-06-14T14:57:59;12.88;;;6.70;;
65831;SDS011;52593;42.648;23.332;2023-06-14T15:00:25;16.40;;;7.10;;